sensor_id;sensor_type;location;lat;lon;timestamp;P1;durP1;ratioP1;P2;durP2;ratioP2
3197;SDS011;1611;49.394;11.136;2022-12-11T00:01:31;31.70;;;16.98;;
3197;SDS011;1611;49.394;11.136;2022-12-11T00:03:58;38.95;;;19.85;;
3197;SDS011;1611;49.394;11.136;2022-12-11T00:06:26;38.15;;;18.15;;
3197;SDS011;1611;49.394;11.136;2022-12-11T00:08:53;38.78;;;18.70;;
3197;SDS011;1611;49.394;11.136;2022-12-11T00:11:20;32.22;;;17.70;;
3197;SDS011;1611;49.394;11.136;2022-12-11T00:13:48;29.58;;;16.33;;
3197;SDS011;1611;49.394;11.136;2022-12-11T00:16:15;34.13;;;16.67;;
3197;SDS011;1611;49.394;11.136;2022-12-11T00:18:42;32.53;;;16.30;;
3197;SDS011;1611;49.394;11.136;2022-12-11T00:21:11;33.95;;;16.92;;
3197;SDS011;1611;49.394;11.136;2022-12-11T00:23:40;29.42;;;16.45;;
3197;SDS011;1611;49.394;11.136;2022-12-11T00:26:08;29.25;;;16.55;;
3197;SDS011;1611;49.394;11.136;2022-12-11T00:28:37;33.10;;;18.13;;
3197;SDS011;1611;49.394;11.136;2022-12-11T00:31:05;26.27;;;16.02;;
3197;SDS011;1611;49.394;11.136;2022-12-11T00:33:32;28.88;;;15.23;;
3197;SDS011;1611;49.394;11.136;2022-12-11T00:35:59;28.70;;;16.33;;
3197;SDS011;1611;49.394;11.136;2022-12-11T00:38:26;31.88;;;15.90;;
3197;SDS011;1611;49.394;11.136;2022-12-11T00:40:58;29.33;;;16.00;;
3197;SDS011;1611;49.394;11.136;2022-12-11T00:43:25;34.45;;;16.92;;
3197;SDS011;1611;49.394;11.136;2022-12-11T00:45:52;28.40;;;15.40;;
3197;SDS011;1611;49.394;11.136;2022-12-11T00:48:19;29.63;;;16.25;;
3197;SDS011;1611;49.394;11.136;2022-12-11T00:50:46;30.63;;;17.50;;
3197;SDS011;1611;49.394;11.136;2022-12-11T00:53:12;33.88;;;17.83;;
3197;SDS011;1611;49.394;11.136;2022-12-11T00:55:40;31.58;;;16.88;;
3197;SDS011;1611;49.394;11.136;2022-12-11T00:58:09;38.63;;;18.98;;
3197;SDS011;1611;49.394;11.136;2022-12-11T01:00:36;30.55;;;17.10;;
3197;SDS011;1611;49.394;11.136;2022-12-11T01:03:05;36.45;;;18.83;;
3197;SDS011;1611;49.394;11.136;2022-12-11T01:05:31;32.38;;;17.42;;
3197;SDS011;1611;49.394;11.136;2022-12-11T01:07:59;36.45;;;19.98;;
3197;SDS011;1611;49.394;11.136;2022-12-11T01:10:26;34.53;;;19.15;;
3197;SDS011;1611;49.394;11.136;2022-12-11T01:12:54;37.30;;;19.95;;
3197;SDS011;1611;49.394;11.136;2022-12-11T01:15:24;36.97;;;20.50;;
3197;SDS011;1611;49.394;11.136;2022-12-11T01:17:52;36.90;;;21.13;;
3197;SDS011;1611;49.394;11.136;2022-12-11T01:20:19;35.53;;;19.67;;
3197;SDS011;1611;49.394;11.136;2022-12-11T01:22:47;39.65;;;20.98;;
3197;SDS011;1611;49.394;11.136;2022-12-11T01:25:16;42.33;;;21.58;;
3197;SDS011;1611;49.394;11.136;2022-12-11T01:27:43;34.88;;;20.17;;
3197;SDS011;1611;49.394;11.136;2022-12-11T01:30:11;42.53;;;21.55;;
3197;SDS011;1611;49.394;11.136;2022-12-11T01:32:39;37.45;;;19.75;;
3197;SDS011;1611;49.394;11.136;2022-12-11T01:35:07;37.22;;;19.20;;
3197;SDS011;1611;49.394;11.136;2022-12-11T01:37:34;35.90;;;19.58;;
3197;SDS011;1611;49.394;11.136;2022-12-11T01:40:02;38.58;;;21.38;;
3197;SDS011;1611;49.394;11.136;2022-12-11T01:42:30;41.75;;;20.73;;
3197;SDS011;1611;49.394;11.136;2022-12-11T01:45:12;43.47;;;21.90;;
3197;SDS011;1611;49.394;11.136;2022-12-11T01:47:50;43.30;;;21.13;;
3197;SDS011;1611;49.394;11.136;2022-12-11T01:50:20;41.55;;;20.42;;
3197;SDS011;1611;49.394;11.136;2022-12-11T01:52:47;42.03;;;22.10;;
3197;SDS011;1611;49.394;11.136;2022-12-11T01:55:15;38.25;;;20.70;;
3197;SDS011;1611;49.394;11.136;2022-12-11T01:57:42;43.83;;;21.60;;
3197;SDS011;1611;49.394;11.136;2022-12-11T02:00:12;37.63;;;19.67;;
3197;SDS011;1611;49.394;11.136;2022-12-11T02:02:40;40.55;;;20.00;;
3197;SDS011;1611;49.394;11.136;2022-12-11T02:05:08;42.00;;;20.10;;
3197;SDS011;1611;49.394;11.136;2022-12-11T02:07:36;37.45;;;20.50;;
3197;SDS011;1611;49.394;11.136;2022-12-11T02:10:07;38.08;;;20.35;;
3197;SDS011;1611;49.394;11.136;2022-12-11T02:12:37;40.72;;;22.58;;
3197;SDS011;1611;49.394;11.136;2022-12-11T02:15:09;39.25;;;20.10;;
3197;SDS011;1611;49.394;11.136;2022-12-11T02:17:43;40.70;;;21.45;;
3197;SDS011;1611;49.394;11.136;2022-12-11T02:20:16;39.53;;;21.20;;
3197;SDS011;1611;49.394;11.136;2022-12-11T02:22:53;40.15;;;21.95;;
3197;SDS011;1611;49.394;11.136;2022-12-11T02:25:31;36.25;;;20.25;;
3197;SDS011;1611;49.394;11.136;2022-12-11T02:28:13;37.33;;;19.08;;
3197;SDS011;1611;49.394;11.136;2022-12-11T02:30:44;38.97;;;19.67;;
3197;SDS011;1611;49.394;11.136;2022-12-11T02:33:15;41.72;;;19.33;;
3197;SDS011;1611;49.394;11.136;2022-12-11T02:35:42;37.30;;;20.00;;
3197;SDS011;1611;49.394;11.136;2022-12-11T02:38:13;38.80;;;19.75;;
3197;SDS011;1611;49.394;11.136;2022-12-11T02:40:42;39.65;;;20.48;;
3197;SDS011;1611;49.394;11.136;2022-12-11T02:43:13;36.97;;;20.55;;
3197;SDS011;1611;49.394;11.136;2022-12-11T02:45:42;41.67;;;22.38;;
3197;SDS011;1611;49.394;11.136;2022-12-11T02:48:11;38.53;;;20.23;;
3197;SDS011;1611;49.394;11.136;2022-12-11T02:50:41;42.40;;;21.90;;
3197;SDS011;1611;49.394;11.136;2022-12-11T02:53:11;40.30;;;22.35;;
3197;SDS011;1611;49.394;11.136;2022-12-11T02:55:40;34.63;;;20.63;;
3197;SDS011;1611;49.394;11.136;2022-12-11T02:58:11;38.63;;;21.10;;
3197;SDS011;1611;49.394;11.136;2022-12-11T03:00:42;37.50;;;20.77;;
3197;SDS011;1611;49.394;11.136;2022-12-11T03:03:10;43.08;;;21.60;;
3197;SDS011;1611;49.394;11.136;2022-12-11T03:05:37;41.65;;;21.70;;
3197;SDS011;1611;49.394;11.136;2022-12-11T03:08:04;40.90;;;22.15;;
3197;SDS011;1611;49.394;11.136;2022-12-11T03:10:30;37.10;;;21.33;;
3197;SDS011;1611;49.394;11.136;2022-12-11T03:12:57;39.45;;;22.00;;
3197;SDS011;1611;49.394;11.136;2022-12-11T03:15:30;44.22;;;23.08;;
3197;SDS011;1611;49.394;11.136;2022-12-11T03:18:03;41.08;;;22.13;;
3197;SDS011;1611;49.394;11.136;2022-12-11T03:20:35;37.72;;;20.38;;
3197;SDS011;1611;49.394;11.136;2022-12-11T03:23:08;42.42;;;22.48;;
3197;SDS011;1611;49.394;11.136;2022-12-11T03:25:43;34.92;;;20.70;;
3197;SDS011;1611;49.394;11.136;2022-12-11T03:28:17;36.00;;;20.00;;
3197;SDS011;1611;49.394;11.136;2022-12-11T03:30:48;34.92;;;19.75;;
3197;SDS011;1611;49.394;11.136;2022-12-11T03:33:17;35.15;;;20.05;;
3197;SDS011;1611;49.394;11.136;2022-12-11T03:35:50;33.83;;;18.73;;
3197;SDS011;1611;49.394;11.136;2022-12-11T03:38:20;34.83;;;21.13;;
3197;SDS011;1611;49.394;11.136;2022-12-11T03:40:50;29.83;;;18.10;;
3197;SDS011;1611;49.394;11.136;2022-12-11T03:43:20;29.15;;;18.58;;
3197;SDS011;1611;49.394;11.136;2022-12-11T03:45:49;33.75;;;17.48;;
3197;SDS011;1611;49.394;11.136;2022-12-11T03:48:17;31.45;;;17.95;;
3197;SDS011;1611;49.394;11.136;2022-12-11T03:50:45;25.90;;;16.33;;
3197;SDS011;1611;49.394;11.136;2022-12-11T03:53:14;27.45;;;16.33;;
3197;SDS011;1611;49.394;11.136;2022-12-11T03:55:41;28.38;;;16.63;;
3197;SDS011;1611;49.394;11.136;2022-12-11T03:58:09;28.08;;;17.48;;
3197;SDS011;1611;49.394;11.136;2022-12-11T04:00:36;28.20;;;17.65;;
3197;SDS011;1611;49.394;11.136;2022-12-11T04:03:04;26.70;;;17.30;;
3197;SDS011;1611;49.394;11.136;2022-12-11T04:05:40;28.35;;;17.35;;
3197;SDS011;1611;49.394;11.136;2022-12-11T04:08:08;30.90;;;18.75;;
3197;SDS011;1611;49.394;11.136;2022-12-11T04:10:35;27.08;;;16.90;;
3197;SDS011;1611;49.394;11.136;2022-12-11T04:13:02;31.50;;;18.55;;
3197;SDS011;1611;49.394;11.136;2022-12-11T04:15:29;30.65;;;18.38;;
3197;SDS011;1611;49.394;11.136;2022-12-11T04:17:55;29.20;;;17.83;;
3197;SDS011;1611;49.394;11.136;2022-12-11T04:20:40;33.65;;;18.10;;
3197;SDS011;1611;49.394;11.136;2022-12-11T04:23:24;32.03;;;18.55;;
3197;SDS011;1611;49.394;11.136;2022-12-11T04:26:10;29.67;;;17.75;;
3197;SDS011;1611;49.394;11.136;2022-12-11T04:28:39;31.92;;;19.30;;
3197;SDS011;1611;49.394;11.136;2022-12-11T04:31:09;34.10;;;17.85;;
3197;SDS011;1611;49.394;11.136;2022-12-11T04:33:37;27.95;;;17.73;;
3197;SDS011;1611;49.394;11.136;2022-12-11T04:36:05;31.63;;;18.38;;
3197;SDS011;1611;49.394;11.136;2022-12-11T04:38:33;33.22;;;20.40;;
3197;SDS011;1611;49.394;11.136;2022-12-11T04:41:00;40.92;;;19.30;;
3197;SDS011;1611;49.394;11.136;2022-12-11T04:43:28;33.13;;;20.60;;
3197;SDS011;1611;49.394;11.136;2022-12-11T04:46:02;34.40;;;19.73;;
3197;SDS011;1611;49.394;11.136;2022-12-11T04:48:30;32.22;;;18.42;;
3197;SDS011;1611;49.394;11.136;2022-12-11T04:50:57;32.78;;;19.30;;
3197;SDS011;1611;49.394;11.136;2022-12-11T04:53:25;36.85;;;21.13;;
3197;SDS011;1611;49.394;11.136;2022-12-11T04:55:52;39.40;;;20.05;;
3197;SDS011;1611;49.394;11.136;2022-12-11T04:58:20;33.47;;;19.45;;
3197;SDS011;1611;49.394;11.136;2022-12-11T05:00:47;41.75;;;21.00;;
3197;SDS011;1611;49.394;11.136;2022-12-11T05:03:14;37.28;;;19.27;;
3197;SDS011;1611;49.394;11.136;2022-12-11T05:05:45;39.85;;;21.52;;
3197;SDS011;1611;49.394;11.136;2022-12-11T05:08:14;37.00;;;21.33;;
3197;SDS011;1611;49.394;11.136;2022-12-11T05:10:42;36.67;;;20.50;;
3197;SDS011;1611;49.394;11.136;2022-12-11T05:13:10;39.22;;;21.13;;
3197;SDS011;1611;49.394;11.136;2022-12-11T05:15:37;37.25;;;20.67;;
3197;SDS011;1611;49.394;11.136;2022-12-11T05:18:04;40.00;;;20.77;;
3197;SDS011;1611;49.394;11.136;2022-12-11T05:20:31;39.33;;;21.10;;
3197;SDS011;1611;49.394;11.136;2022-12-11T05:22:57;39.67;;;21.25;;
3197;SDS011;1611;49.394;11.136;2022-12-11T05:25:24;38.22;;;20.38;;
3197;SDS011;1611;49.394;11.136;2022-12-11T05:27:52;36.17;;;20.67;;
3197;SDS011;1611;49.394;11.136;2022-12-11T05:30:19;37.20;;;19.40;;
3197;SDS011;1611;49.394;11.136;2022-12-11T05:32:46;38.97;;;21.48;;
3197;SDS011;1611;49.394;11.136;2022-12-11T05:35:12;37.85;;;21.00;;
3197;SDS011;1611;49.394;11.136;2022-12-11T05:37:39;39.05;;;20.98;;
3197;SDS011;1611;49.394;11.136;2022-12-11T05:40:06;40.45;;;21.05;;
3197;SDS011;1611;49.394;11.136;2022-12-11T05:42:36;38.95;;;20.60;;
3197;SDS011;1611;49.394;11.136;2022-12-11T05:45:05;39.55;;;21.85;;
3197;SDS011;1611;49.394;11.136;2022-12-11T05:47:32;41.47;;;22.25;;
3197;SDS011;1611;49.394;11.136;2022-12-11T05:49:59;38.97;;;20.80;;
3197;SDS011;1611;49.394;11.136;2022-12-11T05:52:26;40.75;;;21.63;;
3197;SDS011;1611;49.394;11.136;2022-12-11T05:54:52;38.85;;;21.02;;
3197;SDS011;1611;49.394;11.136;2022-12-11T05:57:19;43.00;;;22.15;;
3197;SDS011;1611;49.394;11.136;2022-12-11T05:59:46;39.63;;;21.13;;
3197;SDS011;1611;49.394;11.136;2022-12-11T06:02:14;39.50;;;21.85;;
3197;SDS011;1611;49.394;11.136;2022-12-11T06:04:41;40.38;;;20.85;;
3197;SDS011;1611;49.394;11.136;2022-12-11T06:07:07;41.58;;;19.85;;
3197;SDS011;1611;49.394;11.136;2022-12-11T06:09:34;36.92;;;20.13;;
3197;SDS011;1611;49.394;11.136;2022-12-11T06:12:01;41.75;;;20.45;;
3197;SDS011;1611;49.394;11.136;2022-12-11T06:14:28;41.00;;;19.65;;
3197;SDS011;1611;49.394;11.136;2022-12-11T06:16:54;41.78;;;21.10;;
3197;SDS011;1611;49.394;11.136;2022-12-11T06:19:23;40.20;;;20.67;;
3197;SDS011;1611;49.394;11.136;2022-12-11T06:21:49;40.80;;;20.85;;
3197;SDS011;1611;49.394;11.136;2022-12-11T06:24:16;39.03;;;20.70;;
3197;SDS011;1611;49.394;11.136;2022-12-11T06:26:43;38.40;;;20.65;;
3197;SDS011;1611;49.394;11.136;2022-12-11T06:29:10;36.83;;;19.67;;
3197;SDS011;1611;49.394;11.136;2022-12-11T06:31:37;38.13;;;20.33;;
3197;SDS011;1611;49.394;11.136;2022-12-11T06:34:03;40.60;;;19.98;;
3197;SDS011;1611;49.394;11.136;2022-12-11T06:36:31;37.30;;;20.20;;
3197;SDS011;1611;49.394;11.136;2022-12-11T06:38:58;37.85;;;18.83;;
3197;SDS011;1611;49.394;11.136;2022-12-11T06:41:25;42.40;;;20.60;;
3197;SDS011;1611;49.394;11.136;2022-12-11T06:43:52;36.35;;;19.40;;
3197;SDS011;1611;49.394;11.136;2022-12-11T06:46:19;42.97;;;20.80;;
3197;SDS011;1611;49.394;11.136;2022-12-11T06:48:46;39.72;;;19.33;;
3197;SDS011;1611;49.394;11.136;2022-12-11T06:51:14;38.67;;;19.35;;
3197;SDS011;1611;49.394;11.136;2022-12-11T06:53:43;40.60;;;19.20;;
3197;SDS011;1611;49.394;11.136;2022-12-11T06:56:11;36.35;;;21.17;;
3197;SDS011;1611;49.394;11.136;2022-12-11T06:58:39;33.47;;;18.48;;
3197;SDS011;1611;49.394;11.136;2022-12-11T07:01:12;40.60;;;21.33;;
3197;SDS011;1611;49.394;11.136;2022-12-11T07:03:40;41.30;;;20.83;;
3197;SDS011;1611;49.394;11.136;2022-12-11T07:06:07;42.22;;;20.58;;
3197;SDS011;1611;49.394;11.136;2022-12-11T07:08:34;42.03;;;21.30;;
3197;SDS011;1611;49.394;11.136;2022-12-11T07:11:03;32.95;;;18.23;;
3197;SDS011;1611;49.394;11.136;2022-12-11T07:13:31;40.75;;;21.17;;
3197;SDS011;1611;49.394;11.136;2022-12-11T07:15:58;39.17;;;20.30;;
3197;SDS011;1611;49.394;11.136;2022-12-11T07:18:25;32.13;;;17.58;;
3197;SDS011;1611;49.394;11.136;2022-12-11T07:20:52;40.42;;;20.27;;
3197;SDS011;1611;49.394;11.136;2022-12-11T07:23:19;37.65;;;18.75;;
3197;SDS011;1611;49.394;11.136;2022-12-11T07:25:46;39.47;;;18.55;;
3197;SDS011;1611;49.394;11.136;2022-12-11T07:28:14;35.88;;;19.70;;
3197;SDS011;1611;49.394;11.136;2022-12-11T07:30:41;30.42;;;17.60;;
3197;SDS011;1611;49.394;11.136;2022-12-11T07:33:08;38.38;;;20.67;;
3197;SDS011;1611;49.394;11.136;2022-12-11T07:35:35;34.13;;;18.77;;
3197;SDS011;1611;49.394;11.136;2022-12-11T07:38:02;37.65;;;18.77;;
3197;SDS011;1611;49.394;11.136;2022-12-11T07:40:29;42.47;;;20.77;;
3197;SDS011;1611;49.394;11.136;2022-12-11T07:42:55;37.22;;;19.75;;
3197;SDS011;1611;49.394;11.136;2022-12-11T07:45:23;38.50;;;19.48;;
3197;SDS011;1611;49.394;11.136;2022-12-11T07:47:51;34.65;;;19.02;;
3197;SDS011;1611;49.394;11.136;2022-12-11T07:50:18;38.58;;;18.83;;
3197;SDS011;1611;49.394;11.136;2022-12-11T07:52:44;32.53;;;18.60;;
3197;SDS011;1611;49.394;11.136;2022-12-11T07:55:11;30.15;;;17.02;;
3197;SDS011;1611;49.394;11.136;2022-12-11T07:57:38;26.65;;;15.80;;
3197;SDS011;1611;49.394;11.136;2022-12-11T08:00:05;34.00;;;17.58;;
3197;SDS011;1611;49.394;11.136;2022-12-11T08:02:35;29.73;;;17.55;;
3197;SDS011;1611;49.394;11.136;2022-12-11T08:05:03;28.77;;;16.67;;
3197;SDS011;1611;49.394;11.136;2022-12-11T08:07:32;27.25;;;17.05;;
3197;SDS011;1611;49.394;11.136;2022-12-11T08:09:59;29.33;;;16.15;;
3197;SDS011;1611;49.394;11.136;2022-12-11T08:12:26;31.05;;;16.08;;
3197;SDS011;1611;49.394;11.136;2022-12-11T08:14:53;29.13;;;17.10;;
3197;SDS011;1611;49.394;11.136;2022-12-11T08:17:19;27.80;;;17.27;;
3197;SDS011;1611;49.394;11.136;2022-12-11T08:19:48;35.25;;;16.38;;
3197;SDS011;1611;49.394;11.136;2022-12-11T08:22:14;30.35;;;16.70;;
3197;SDS011;1611;49.394;11.136;2022-12-11T08:24:41;32.67;;;18.33;;
3197;SDS011;1611;49.394;11.136;2022-12-11T08:27:08;26.60;;;15.68;;
3197;SDS011;1611;49.394;11.136;2022-12-11T08:29:35;27.98;;;16.70;;
3197;SDS011;1611;49.394;11.136;2022-12-11T08:32:02;28.33;;;15.88;;
3197;SDS011;1611;49.394;11.136;2022-12-11T08:34:29;24.48;;;15.27;;
3197;SDS011;1611;49.394;11.136;2022-12-11T08:36:57;24.40;;;14.88;;
3197;SDS011;1611;49.394;11.136;2022-12-11T08:39:24;25.42;;;15.70;;
3197;SDS011;1611;49.394;11.136;2022-12-11T08:41:51;20.17;;;13.85;;
3197;SDS011;1611;49.394;11.136;2022-12-11T08:44:18;25.73;;;14.70;;
3197;SDS011;1611;49.394;11.136;2022-12-11T08:46:48;23.80;;;15.40;;
3197;SDS011;1611;49.394;11.136;2022-12-11T08:49:15;27.67;;;15.85;;
3197;SDS011;1611;49.394;11.136;2022-12-11T08:51:41;25.45;;;15.65;;
3197;SDS011;1611;49.394;11.136;2022-12-11T08:54:09;26.80;;;15.60;;
3197;SDS011;1611;49.394;11.136;2022-12-11T08:56:36;25.60;;;15.43;;
3197;SDS011;1611;49.394;11.136;2022-12-11T08:59:03;29.02;;;15.82;;
3197;SDS011;1611;49.394;11.136;2022-12-11T09:01:30;24.35;;;16.25;;
3197;SDS011;1611;49.394;11.136;2022-12-11T09:03:57;25.90;;;15.70;;
3197;SDS011;1611;49.394;11.136;2022-12-11T09:06:25;26.98;;;16.27;;
3197;SDS011;1611;49.394;11.136;2022-12-11T09:08:53;26.80;;;17.00;;
3197;SDS011;1611;49.394;11.136;2022-12-11T09:11:22;28.67;;;16.90;;
3197;SDS011;1611;49.394;11.136;2022-12-11T09:13:51;30.35;;;17.42;;
3197;SDS011;1611;49.394;11.136;2022-12-11T09:16:19;31.65;;;18.42;;
3197;SDS011;1611;49.394;11.136;2022-12-11T09:18:48;27.48;;;16.67;;
3197;SDS011;1611;49.394;11.136;2022-12-11T09:21:17;27.63;;;16.27;;
3197;SDS011;1611;49.394;11.136;2022-12-11T09:23:45;29.15;;;17.35;;
3197;SDS011;1611;49.394;11.136;2022-12-11T09:26:13;29.27;;;17.48;;
3197;SDS011;1611;49.394;11.136;2022-12-11T09:28:43;30.15;;;17.75;;
3197;SDS011;1611;49.394;11.136;2022-12-11T09:31:11;26.27;;;16.33;;
3197;SDS011;1611;49.394;11.136;2022-12-11T09:33:39;30.73;;;18.38;;
3197;SDS011;1611;49.394;11.136;2022-12-11T09:36:06;24.63;;;16.13;;
3197;SDS011;1611;49.394;11.136;2022-12-11T09:38:33;28.08;;;16.30;;
3197;SDS011;1611;49.394;11.136;2022-12-11T09:41:01;24.05;;;15.68;;
3197;SDS011;1611;49.394;11.136;2022-12-11T09:43:41;31.08;;;16.40;;
3197;SDS011;1611;49.394;11.136;2022-12-11T09:46:12;32.15;;;18.80;;
3197;SDS011;1611;49.394;11.136;2022-12-11T09:48:41;22.80;;;16.13;;
3197;SDS011;1611;49.394;11.136;2022-12-11T09:51:12;29.63;;;16.90;;
3197;SDS011;1611;49.394;11.136;2022-12-11T09:53:43;25.60;;;15.82;;
3197;SDS011;1611;49.394;11.136;2022-12-11T09:56:13;25.45;;;16.27;;
3197;SDS011;1611;49.394;11.136;2022-12-11T09:58:52;26.42;;;16.17;;
3197;SDS011;1611;49.394;11.136;2022-12-11T10:01:29;27.08;;;17.40;;
3197;SDS011;1611;49.394;11.136;2022-12-11T10:04:09;31.38;;;15.48;;
3197;SDS011;1611;49.394;11.136;2022-12-11T10:06:47;25.27;;;17.17;;
3197;SDS011;1611;49.394;11.136;2022-12-11T10:09:21;27.27;;;16.63;;
3197;SDS011;1611;49.394;11.136;2022-12-11T10:12:00;32.15;;;16.42;;
3197;SDS011;1611;49.394;11.136;2022-12-11T10:14:44;33.03;;;18.27;;
3197;SDS011;1611;49.394;11.136;2022-12-11T10:17:24;31.08;;;16.95;;
3197;SDS011;1611;49.394;11.136;2022-12-11T10:19:54;30.05;;;17.42;;
3197;SDS011;1611;49.394;11.136;2022-12-11T10:22:25;29.05;;;17.73;;
3197;SDS011;1611;49.394;11.136;2022-12-11T10:24:55;29.27;;;17.02;;
3197;SDS011;1611;49.394;11.136;2022-12-11T10:27:27;30.23;;;17.23;;
3197;SDS011;1611;49.394;11.136;2022-12-11T10:30:03;29.02;;;16.73;;
3197;SDS011;1611;49.394;11.136;2022-12-11T10:32:40;28.40;;;17.05;;
3197;SDS011;1611;49.394;11.136;2022-12-11T10:35:17;26.13;;;15.00;;
3197;SDS011;1611;49.394;11.136;2022-12-11T10:37:48;27.33;;;17.02;;
3197;SDS011;1611;49.394;11.136;2022-12-11T10:40:16;28.08;;;16.85;;
3197;SDS011;1611;49.394;11.136;2022-12-11T10:42:50;28.05;;;16.58;;
3197;SDS011;1611;49.394;11.136;2022-12-11T10:45:19;27.38;;;15.25;;
3197;SDS011;1611;49.394;11.136;2022-12-11T10:47:46;23.90;;;14.52;;
3197;SDS011;1611;49.394;11.136;2022-12-11T10:50:23;22.70;;;13.38;;
3197;SDS011;1611;49.394;11.136;2022-12-11T10:52:51;22.50;;;13.63;;
3197;SDS011;1611;49.394;11.136;2022-12-11T10:55:20;22.25;;;14.05;;
3197;SDS011;1611;49.394;11.136;2022-12-11T10:57:53;23.63;;;15.18;;
3197;SDS011;1611;49.394;11.136;2022-12-11T11:00:29;20.15;;;12.77;;
3197;SDS011;1611;49.394;11.136;2022-12-11T11:03:01;22.73;;;14.00;;
3197;SDS011;1611;49.394;11.136;2022-12-11T11:05:31;24.95;;;13.10;;
3197;SDS011;1611;49.394;11.136;2022-12-11T11:08:03;23.55;;;13.85;;
3197;SDS011;1611;49.394;11.136;2022-12-11T11:10:48;23.13;;;13.70;;
3197;SDS011;1611;49.394;11.136;2022-12-11T11:13:16;24.20;;;13.40;;
3197;SDS011;1611;49.394;11.136;2022-12-11T11:15:47;23.10;;;14.05;;
3197;SDS011;1611;49.394;11.136;2022-12-11T11:18:15;23.40;;;14.40;;
3197;SDS011;1611;49.394;11.136;2022-12-11T11:20:52;20.23;;;13.35;;
3197;SDS011;1611;49.394;11.136;2022-12-11T11:23:19;26.60;;;14.45;;
3197;SDS011;1611;49.394;11.136;2022-12-11T11:25:48;25.23;;;14.95;;
3197;SDS011;1611;49.394;11.136;2022-12-11T11:28:18;22.50;;;14.32;;
3197;SDS011;1611;49.394;11.136;2022-12-11T11:30:59;23.25;;;14.43;;
3197;SDS011;1611;49.394;11.136;2022-12-11T11:33:28;28.40;;;15.25;;
3197;SDS011;1611;49.394;11.136;2022-12-11T11:35:57;22.70;;;14.07;;
3197;SDS011;1611;49.394;11.136;2022-12-11T11:38:27;28.50;;;16.00;;
3197;SDS011;1611;49.394;11.136;2022-12-11T11:40:59;24.67;;;14.30;;
3197;SDS011;1611;49.394;11.136;2022-12-11T11:43:33;26.35;;;15.18;;
3197;SDS011;1611;49.394;11.136;2022-12-11T11:46:07;26.88;;;15.57;;
3197;SDS011;1611;49.394;11.136;2022-12-11T11:48:40;30.65;;;16.38;;
3197;SDS011;1611;49.394;11.136;2022-12-11T11:51:15;27.90;;;17.63;;
3197;SDS011;1611;49.394;11.136;2022-12-11T11:53:46;25.70;;;15.93;;
3197;SDS011;1611;49.394;11.136;2022-12-11T11:56:19;25.83;;;15.57;;
3197;SDS011;1611;49.394;11.136;2022-12-11T11:58:53;29.77;;;15.85;;
3197;SDS011;1611;49.394;11.136;2022-12-11T12:01:27;26.25;;;15.65;;
3197;SDS011;1611;49.394;11.136;2022-12-11T12:03:55;25.38;;;13.85;;
3197;SDS011;1611;49.394;11.136;2022-12-11T12:06:26;22.45;;;14.40;;
3197;SDS011;1611;49.394;11.136;2022-12-11T12:09:02;22.63;;;14.20;;
3197;SDS011;1611;49.394;11.136;2022-12-11T12:11:39;22.02;;;13.35;;
3197;SDS011;1611;49.394;11.136;2022-12-11T12:14:12;21.55;;;13.65;;
3197;SDS011;1611;49.394;11.136;2022-12-11T12:16:48;23.73;;;13.70;;
3197;SDS011;1611;49.394;11.136;2022-12-11T12:19:27;26.50;;;15.68;;
3197;SDS011;1611;49.394;11.136;2022-12-11T12:22:04;25.40;;;14.68;;
3197;SDS011;1611;49.394;11.136;2022-12-11T12:24:43;28.25;;;14.65;;
3197;SDS011;1611;49.394;11.136;2022-12-11T12:27:18;21.55;;;13.57;;
3197;SDS011;1611;49.394;11.136;2022-12-11T12:29:50;25.60;;;13.70;;
3197;SDS011;1611;49.394;11.136;2022-12-11T12:32:26;21.67;;;13.60;;
3197;SDS011;1611;49.394;11.136;2022-12-11T12:35:03;25.13;;;12.77;;
3197;SDS011;1611;49.394;11.136;2022-12-11T12:37:44;19.27;;;12.65;;
3197;SDS011;1611;49.394;11.136;2022-12-11T12:40:18;22.00;;;12.70;;
3197;SDS011;1611;49.394;11.136;2022-12-11T12:42:53;21.13;;;13.15;;
3197;SDS011;1611;49.394;11.136;2022-12-11T12:45:30;20.80;;;12.88;;
3197;SDS011;1611;49.394;11.136;2022-12-11T12:48:03;21.73;;;13.85;;
3197;SDS011;1611;49.394;11.136;2022-12-11T12:50:35;18.75;;;12.40;;
3197;SDS011;1611;49.394;11.136;2022-12-11T12:53:05;20.80;;;13.07;;
3197;SDS011;1611;49.394;11.136;2022-12-11T12:55:36;23.42;;;13.30;;
3197;SDS011;1611;49.394;11.136;2022-12-11T12:58:05;19.98;;;13.32;;
3197;SDS011;1611;49.394;11.136;2022-12-11T13:00:33;20.05;;;13.00;;
3197;SDS011;1611;49.394;11.136;2022-12-11T13:03:02;22.33;;;13.55;;
3197;SDS011;1611;49.394;11.136;2022-12-11T13:05:41;21.75;;;13.68;;
3197;SDS011;1611;49.394;11.136;2022-12-11T13:08:09;23.92;;;13.82;;
3197;SDS011;1611;49.394;11.136;2022-12-11T13:10:38;24.02;;;14.75;;
3197;SDS011;1611;49.394;11.136;2022-12-11T13:16:20;20.88;;;12.55;;
3197;SDS011;1611;49.394;11.136;2022-12-11T13:18:52;24.85;;;12.82;;
3197;SDS011;1611;49.394;11.136;2022-12-11T13:21:26;19.33;;;11.90;;
3197;SDS011;1611;49.394;11.136;2022-12-11T13:24:05;19.08;;;12.88;;
3197;SDS011;1611;49.394;11.136;2022-12-11T13:26:49;23.00;;;12.77;;
3197;SDS011;1611;49.394;11.136;2022-12-11T13:29:32;22.13;;;12.77;;
3197;SDS011;1611;49.394;11.136;2022-12-11T13:32:01;17.08;;;10.65;;
3197;SDS011;1611;49.394;11.136;2022-12-11T13:34:49;20.98;;;12.10;;
3197;SDS011;1611;49.394;11.136;2022-12-11T13:37:20;16.35;;;10.52;;
3197;SDS011;1611;49.394;11.136;2022-12-11T13:39:50;19.63;;;10.45;;
3197;SDS011;1611;49.394;11.136;2022-12-11T13:42:19;16.38;;;10.57;;
3197;SDS011;1611;49.394;11.136;2022-12-11T13:44:50;16.50;;;10.13;;
3197;SDS011;1611;49.394;11.136;2022-12-11T13:47:17;16.25;;;10.70;;
3197;SDS011;1611;49.394;11.136;2022-12-11T13:49:47;19.25;;;11.80;;
3197;SDS011;1611;49.394;11.136;2022-12-11T13:52:19;19.35;;;11.27;;
3197;SDS011;1611;49.394;11.136;2022-12-11T13:54:47;16.30;;;10.50;;
3197;SDS011;1611;49.394;11.136;2022-12-11T13:57:16;19.08;;;10.98;;
3197;SDS011;1611;49.394;11.136;2022-12-11T13:59:47;14.82;;;10.10;;
3197;SDS011;1611;49.394;11.136;2022-12-11T14:02:17;13.20;;;9.15;;
3197;SDS011;1611;49.394;11.136;2022-12-11T14:04:48;15.48;;;9.95;;
3197;SDS011;1611;49.394;11.136;2022-12-11T14:07:19;14.70;;;9.57;;
3197;SDS011;1611;49.394;11.136;2022-12-11T14:09:50;16.08;;;10.55;;
3197;SDS011;1611;49.394;11.136;2022-12-11T14:12:19;17.83;;;11.02;;
3197;SDS011;1611;49.394;11.136;2022-12-11T14:14:48;20.75;;;11.85;;
3197;SDS011;1611;49.394;11.136;2022-12-11T14:17:19;19.23;;;10.13;;
3197;SDS011;1611;49.394;11.136;2022-12-11T14:19:51;15.85;;;10.18;;
3197;SDS011;1611;49.394;11.136;2022-12-11T14:22:20;20.23;;;10.55;;
3197;SDS011;1611;49.394;11.136;2022-12-11T14:24:48;18.48;;;11.00;;
3197;SDS011;1611;49.394;11.136;2022-12-11T14:27:16;16.52;;;10.90;;
3197;SDS011;1611;49.394;11.136;2022-12-11T14:29:43;20.45;;;11.02;;
3197;SDS011;1611;49.394;11.136;2022-12-11T14:32:12;17.65;;;10.57;;
3197;SDS011;1611;49.394;11.136;2022-12-11T14:34:45;17.52;;;10.65;;
3197;SDS011;1611;49.394;11.136;2022-12-11T14:37:15;19.48;;;11.05;;
3197;SDS011;1611;49.394;11.136;2022-12-11T14:39:46;17.38;;;9.90;;
3197;SDS011;1611;49.394;11.136;2022-12-11T14:42:20;16.25;;;10.32;;
3197;SDS011;1611;49.394;11.136;2022-12-11T14:44:51;14.60;;;9.57;;
3197;SDS011;1611;49.394;11.136;2022-12-11T14:47:22;15.48;;;9.45;;
3197;SDS011;1611;49.394;11.136;2022-12-11T14:49:52;13.70;;;8.88;;
3197;SDS011;1611;49.394;11.136;2022-12-11T14:52:24;15.45;;;9.45;;
3197;SDS011;1611;49.394;11.136;2022-12-11T14:54:56;18.13;;;10.13;;